ADDS METAR Data INFO
IDs: Format: Raw Decoded Include TAF

Data at: 1431 UTC 20 Sep 2017

KW43 201415Z AUTO 20014KT 10SM CLR 07/00 A2983 RMK AO2
KW43 201355Z AUTO 20012KT 10SM CLR 06/00 A2983 RMK AO2
KW43 201335Z AUTO 20010G14KT 10SM CLR 06/00 A2982 RMK AO2
KW43 201315Z AUTO 20010KT 10SM CLR 05/00 A2982 RMK AO2
KW43 201255Z AUTO 22010G15KT 10SM CLR 05/00 A2981 RMK AO2
KW43 201235Z AUTO 21008KT 10SM CLR 05/00 A2980 RMK AO2
KW43 201215Z AUTO 20009KT 10SM CLR 03/00 A2980 RMK AO2
KW43 201155Z AUTO 21007KT 10SM CLR 05/01 A2980 RMK AO2
KW43 201135Z AUTO 20008KT 10SM CLR 05/01 A2980 RMK AO2
KW43 201115Z AUTO 21010KT 10SM CLR 05/01 A2979 RMK AO2
KW43 201055Z AUTO 20008KT 10SM CLR 05/01 A2979 RMK AO2
KW43 201035Z AUTO 21009KT 10SM CLR 05/01 A2979 RMK AO2
KW43 201015Z AUTO 20009KT 10SM CLR 05/01 A2979 RMK AO2
KW43 200955Z AUTO 20010KT 10SM CLR 05/02 A2978 RMK AO2
KW43 200935Z AUTO 21010G15KT 10SM CLR 05/02 A2977 RMK AO2
KW43 200915Z AUTO 19010KT 10SM CLR 05/02 A2976 RMK AO2
KW43 200855Z AUTO 23007KT 10SM CLR 05/02 A2977 RMK AO2
KW43 200835Z AUTO 23005KT 10SM CLR 04/02 A2976 RMK AO2
KW43 200815Z AUTO 18008KT 10SM CLR 03/02 A2976 RMK AO2
KW43 200755Z AUTO 20005KT 10SM CLR 04/02 A2976 RMK AO2
KW43 200735Z AUTO 23008KT 10SM CLR 05/02 A2977 RMK AO2
KW43 200715Z AUTO 22006KT 10SM CLR 04/02 A2976 RMK AO2
KW43 200655Z AUTO 21009KT 10SM CLR 04/02 A2975 RMK AO2
KW43 200635Z AUTO 21007KT 10SM CLR 05/02 A2975 RMK AO2
KW43 200615Z AUTO 22010KT 10SM CLR 05/03 A2976 RMK AO2
KW43 200555Z AUTO 21008KT 10SM CLR 05/03 A2976 RMK AO2
KW43 200535Z AUTO 20010KT 10SM CLR 05/03 A2977 RMK AO2
KW43 200515Z AUTO 22009KT 10SM CLR 05/03 A2977 RMK AO2
KW43 200455Z AUTO 21009KT 10SM CLR 05/03 A2977 RMK AO2
KW43 200435Z AUTO 21011KT 10SM CLR 05/03 A2977 RMK AO2
KW43 200415Z AUTO 21005KT 10SM CLR 05/03 A2977 RMK AO2
KW43 200355Z AUTO 20006KT 10SM CLR 05/03 A2978 RMK AO2
KW43 200335Z AUTO 21007KT 10SM CLR 05/03 A2977 RMK AO2
KW43 200315Z AUTO 21007KT 10SM CLR 05/04 A2977 RMK AO2
KW43 200255Z AUTO 21008KT 10SM CLR 05/04 A2977 RMK AO2
KW43 200235Z AUTO 21006KT 10SM CLR 06/05 A2978 RMK AO2
KW43 200215Z AUTO 22007KT 10SM CLR 06/05 A2978 RMK AO2
KW43 200155Z AUTO 22006KT 10SM CLR 06/05 A2978 RMK AO2
KW43 200135Z AUTO 22007KT 10SM SCT017 SCT090 SCT120 07/05 A2977 RMK AO2
KW43 200115Z AUTO 25006KT 10SM SCT017 BKN095 OVC120 07/06 A2978 RMK AO2
KW43 200055Z AUTO 24004KT 10SM -RA OVC085 07/06 A2976 RMK AO2 P0001
KW43 200035Z AUTO 21003KT 10SM -DZ SCT050 SCT065 OVC075 07/06 A2974 RMK AO2 P0001
KW43 200015Z AUTO 22005KT 10SM -RA SCT011 BKN050 OVC075 07/06 A2975 RMK AO2
KW43 192355Z AUTO 23005KT 5SM +RA OVC013 07/06 A2976 RMK AO2 P0003
KW43 192335Z AUTO 00000KT 7SM -RA BKN015 BKN021 OVC041 07/05 A2974 RMK AO2 P0001
KW43 192315Z AUTO 00000KT 10SM -DZ SCT027 SCT035 OVC041 07/05 A2974 RMK AO2
KW43 192255Z AUTO 00000KT 10SM SCT007 SCT024 OVC034 07/05 A2974 RMK AO2 P0001
KW43 192235Z AUTO 33003KT 10SM SCT003 BKN007 OVC027 07/06 A2972 RMK AO2 P0001
KW43 192215Z AUTO 31007G14KT 2 1/2SM +RA SCT003 BKN009 OVC014 07/07 A2972 RMK AO2 P0001
KW43 192155Z AUTO 32003KT 10SM -RA SCT003 OVC011 08/07 A2971 RMK AO2 P0004
KW43 192135Z AUTO 28004KT 10SM -DZ SCT010 BKN033 OVC050 08/07 A2970 RMK AO2 P0004
KW43 192115Z AUTO 00000KT 5SM -RA SCT008 SCT015 OVC050 08/07 A2966 RMK AO2 P0004
KW43 192055Z AUTO 25005KT 3SM +RA SCT005 BKN011 OVC029 08/07 A2969 RMK AO2 P0011
KW43 192035Z AUTO 30005KT 7SM RA BKN012 OVC018 08/07 A2968 RMK AO2 P0003
KW43 192015Z AUTO 31010G15KT 10SM RA BKN010 OVC013 09/07 A2966 RMK AO2
KW43 191955Z AUTO 33010KT 10SM -DZ OVC015 11/08 A2965 RMK AO2
KW43 191935Z AUTO 33010KT 10SM BKN013 BKN020 OVC065 12/08 A2964 RMK AO2
KW43 191915Z AUTO 32007KT 10SM -RA SCT013 BKN029 OVC065 12/10 A2964 RMK AO2
KW43 191855Z AUTO 33010KT 10SM RA SCT018 BKN028 OVC080 13/10 A2964 RMK AO2
KW43 191835Z AUTO 31008KT 10SM -RA SCT019 BKN039 OVC080 13/09 A2962 RMK AO2
KW43 191815Z AUTO 31006G17KT 10SM SCT044 BKN060 OVC100 16/07 A2962 RMK AO2
KW43 191755Z AUTO 25015G20KT 10SM BKN060 BKN080 OVC100 18/06 A2961 RMK AO2
KW43 191735Z AUTO 26010G17KT 10SM SCT060 BKN100 OVC120 17/06 A2960 RMK AO2
KW43 191715Z AUTO 28007KT 250V320 10SM OVC110 16/07 A2960 RMK AO2
KW43 191655Z AUTO 26007G14KT 10SM BKN100 18/05 A2959 RMK AO2
KW43 191635Z AUTO 22005KT 10SM OVC110 16/06 A2959 RMK AO2
KW43 191615Z AUTO 19005KT 10SM BKN110 16/06 A2959 RMK AO2
KW43 191555Z AUTO 17004KT 10SM SCT042 SCT065 BKN110 15/06 A2960 RMK AO2
KW43 191535Z AUTO 17006KT 10SM SCT080 SCT085 OVC110 14/06 A2962 RMK AO2
KW43 191515Z AUTO 19004KT 10SM OVC100 13/07 A2962 RMK AO2
KW43 191455Z AUTO 17003KT 10SM OVC100 13/07 A2962 RMK AO2
KW43 191435Z AUTO 00000KT 10SM BKN100 13/06 A2962 RMK AO2
KW43 191415Z AUTO 00000KT 10SM OVC100 12/06 A2964 RMK AO2
KW43 191355Z AUTO 00000KT 10SM SCT100 BKN120 12/06 A2962 RMK AO2
KW43 191335Z AUTO 15006KT 10SM SCT120 12/06 A2962 RMK AO2
KW43 191315Z AUTO 14004KT 10SM SCT120 12/06 A2961 RMK AO2
KW43 191255Z AUTO 00000KT 10SM SCT120 13/04 A2962 RMK AO2
KW43 191235Z AUTO 00000KT 10SM SCT110 13/04 A2961 RMK AO2
KW43 191215Z AUTO 06004KT 10SM BKN110 13/05 A2961 RMK AO2
KW43 191155Z AUTO 00000KT 10SM CLR 13/04 A2961 RMK AO2
KW43 191135Z AUTO 00000KT 10SM CLR 14/04 A2960 RMK AO2
KW43 191115Z AUTO 05003KT 10SM CLR 14/03 A2962 RMK AO2
KW43 191055Z AUTO 29005KT 10SM CLR 16/03 A2962 RMK AO2
KW43 191035Z AUTO 28004KT 10SM CLR 16/02 A2962 RMK AO2
KW43 191015Z AUTO 26009G15KT 10SM SCT110 17/02 A2962 RMK AO2
KW43 190955Z AUTO 27013G24KT 10SM SCT110 18/02 A2961 RMK AO2
KW43 190935Z AUTO 25012G25KT 220V280 10SM CLR 21/01 A2958 RMK AO2
KW43 190915Z AUTO 21016G21KT 10SM CLR 21/01 A2955 RMK AO2
KW43 190855Z AUTO 20015G25KT 10SM CLR 21/01 A2956 RMK AO2
KW43 190835Z AUTO 20019G26KT 10SM CLR 21/01 A2956 RMK AO2
KW43 190815Z AUTO 21013G20KT 10SM CLR 21/02 A2957 RMK AO2
KW43 190755Z AUTO 21010KT 10SM CLR 20/02 A2959 RMK AO2
KW43 190735Z AUTO 20012KT 10SM CLR 21/02 A2960 RMK AO2
KW43 190715Z AUTO 21012KT 10SM CLR 21/02 A2960 RMK AO2
KW43 190655Z AUTO 20013G18KT 10SM CLR 21/02 A2961 RMK AO2
KW43 190635Z AUTO 19014KT 10SM SCT120 21/01 A2962 RMK AO2
KW43 190615Z AUTO 18014G21KT 10SM SCT120 21/01 A2963 RMK AO2
KW43 190555Z AUTO 19013G18KT 10SM CLR 22/01 A2964 RMK AO2
KW43 190535Z AUTO 19013G16KT 10SM CLR 22/00 A2965 RMK AO2
KW43 190515Z AUTO 19012G17KT 10SM CLR 22/01 A2965 RMK AO2
KW43 190455Z AUTO 19012KT 10SM CLR 21/01 A2966 RMK AO2
KW43 190435Z AUTO 19008KT 10SM CLR 21/01 A2967 RMK AO2
KW43 190415Z AUTO 19006KT 10SM CLR 21/01 A2968 RMK AO2
KW43 190355Z AUTO 18007KT 10SM CLR 20/02 A2969 RMK AO2
KW43 190335Z AUTO 00000KT 10SM CLR 19/02 A2969 RMK AO2
KW43 190315Z AUTO 17007KT 10SM CLR 18/03 A2969 RMK AO2
KW43 190255Z AUTO 18004KT 10SM CLR 17/03 A2971 RMK AO2
KW43 190235Z AUTO 15008KT 10SM CLR 17/04 A2971 RMK AO2